sensor_id;sensor_type;location;lat;lon;timestamp;temperature;humidity
15967;DHT22;15175;48.154;11.534;2024-03-08T00:02:54;2.40;99.90
15967;DHT22;15175;48.154;11.534;2024-03-08T00:08:56;2.40;99.90
15967;DHT22;15175;48.154;11.534;2024-03-08T00:15:00;2.40;99.90
15967;DHT22;15175;48.154;11.534;2024-03-08T00:21:02;2.30;99.90
15967;DHT22;15175;48.154;11.534;2024-03-08T00:27:05;2.30;99.90
15967;DHT22;15175;48.154;11.534;2024-03-08T00:33:09;2.20;99.90
15967;DHT22;15175;48.154;11.534;2024-03-08T00:39:11;2.30;99.90
15967;DHT22;15175;48.154;11.534;2024-03-08T00:45:14;2.30;99.90
15967;DHT22;15175;48.154;11.534;2024-03-08T00:51:17;2.30;99.90
15967;DHT22;15175;48.154;11.534;2024-03-08T00:57:20;2.20;99.90
15967;DHT22;15175;48.154;11.534;2024-03-08T01:03:23;2.10;99.90
15967;DHT22;15175;48.154;11.534;2024-03-08T01:09:27;2.10;99.90
15967;DHT22;15175;48.154;11.534;2024-03-08T01:15:29;2.10;99.90
15967;DHT22;15175;48.154;11.534;2024-03-08T01:21:32;2.00;99.90
15967;DHT22;15175;48.154;11.534;2024-03-08T01:27:36;1.90;99.90
15967;DHT22;15175;48.154;11.534;2024-03-08T01:33:39;1.90;99.90
15967;DHT22;15175;48.154;11.534;2024-03-08T01:39:41;1.80;99.90
15967;DHT22;15175;48.154;11.534;2024-03-08T01:45:45;1.80;99.90
15967;DHT22;15175;48.154;11.534;2024-03-08T01:51:48;1.80;99.90
15967;DHT22;15175;48.154;11.534;2024-03-08T01:57:51;1.80;99.90
15967;DHT22;15175;48.154;11.534;2024-03-08T02:03:55;1.70;99.90
15967;DHT22;15175;48.154;11.534;2024-03-08T02:09:57;1.70;99.90
15967;DHT22;15175;48.154;11.534;2024-03-08T02:16:00;1.60;99.90
15967;DHT22;15175;48.154;11.534;2024-03-08T02:22:05;1.60;99.90
15967;DHT22;15175;48.154;11.534;2024-03-08T02:28:09;1.60;99.90
15967;DHT22;15175;48.154;11.534;2024-03-08T02:34:12;1.50;99.90
15967;DHT22;15175;48.154;11.534;2024-03-08T02:40:16;1.60;99.90
15967;DHT22;15175;48.154;11.534;2024-03-08T02:46:19;1.60;99.90
15967;DHT22;15175;48.154;11.534;2024-03-08T02:52:21;1.50;99.90
15967;DHT22;15175;48.154;11.534;2024-03-08T02:58:25;1.50;99.90
15967;DHT22;15175;48.154;11.534;2024-03-08T03:04:28;1.40;99.90
15967;DHT22;15175;48.154;11.534;2024-03-08T03:10:30;1.40;99.90
15967;DHT22;15175;48.154;11.534;2024-03-08T03:16:34;1.40;99.90
15967;DHT22;15175;48.154;11.534;2024-03-08T03:22:36;1.50;99.90
15967;DHT22;15175;48.154;11.534;2024-03-08T03:28:39;1.40;99.90
15967;DHT22;15175;48.154;11.534;2024-03-08T03:34:43;1.30;99.90
15967;DHT22;15175;48.154;11.534;2024-03-08T03:40:45;1.30;99.90
15967;DHT22;15175;48.154;11.534;2024-03-08T03:46:49;1.30;99.90
15967;DHT22;15175;48.154;11.534;2024-03-08T03:52:54;1.30;99.90
15967;DHT22;15175;48.154;11.534;2024-03-08T03:58:56;1.20;99.90
15967;DHT22;15175;48.154;11.534;2024-03-08T04:04:59;1.20;99.90
15967;DHT22;15175;48.154;11.534;2024-03-08T04:11:03;1.10;99.90
15967;DHT22;15175;48.154;11.534;2024-03-08T04:17:05;1.20;99.90
15967;DHT22;15175;48.154;11.534;2024-03-08T04:23:09;1.10;99.90
15967;DHT22;15175;48.154;11.534;2024-03-08T04:29:13;1.10;99.90
15967;DHT22;15175;48.154;11.534;2024-03-08T04:35:16;1.10;99.90
15967;DHT22;15175;48.154;11.534;2024-03-08T04:41:18;1.00;99.90
15967;DHT22;15175;48.154;11.534;2024-03-08T04:47:22;1.00;99.90
15967;DHT22;15175;48.154;11.534;2024-03-08T04:53:25;0.90;99.90
15967;DHT22;15175;48.154;11.534;2024-03-08T04:59:27;0.80;99.90
15967;DHT22;15175;48.154;11.534;2024-03-08T05:05:31;0.90;99.90
15967;DHT22;15175;48.154;11.534;2024-03-08T05:11:34;1.00;99.90
15967;DHT22;15175;48.154;11.534;2024-03-08T05:17:37;1.00;99.90
15967;DHT22;15175;48.154;11.534;2024-03-08T05:23:42;1.00;99.90
15967;DHT22;15175;48.154;11.534;2024-03-08T05:29:44;1.00;99.90
15967;DHT22;15175;48.154;11.534;2024-03-08T05:35:47;1.00;99.90
15967;DHT22;15175;48.154;11.534;2024-03-08T05:41:51;1.10;99.90
15967;DHT22;15175;48.154;11.534;2024-03-08T05:47:53;1.00;99.90
15967;DHT22;15175;48.154;11.534;2024-03-08T05:53:56;0.90;99.90
15967;DHT22;15175;48.154;11.534;2024-03-08T06:00:00;0.90;99.90
15967;DHT22;15175;48.154;11.534;2024-03-08T06:06:13;1.00;99.90
15967;DHT22;15175;48.154;11.534;2024-03-08T06:12:16;1.00;99.90
15967;DHT22;15175;48.154;11.534;2024-03-08T06:18:21;0.90;99.90
15967;DHT22;15175;48.154;11.534;2024-03-08T06:24:23;0.90;99.90
15967;DHT22;15175;48.154;11.534;2024-03-08T06:30:25;0.80;99.90
15967;DHT22;15175;48.154;11.534;2024-03-08T06:36:29;1.00;99.90
15967;DHT22;15175;48.154;11.534;2024-03-08T06:42:31;1.20;99.90
15967;DHT22;15175;48.154;11.534;2024-03-08T06:48:35;1.20;99.90
15967;DHT22;15175;48.154;11.534;2024-03-08T06:54:41;1.40;99.90
15967;DHT22;15175;48.154;11.534;2024-03-08T07:00:44;1.40;99.90
15967;DHT22;15175;48.154;11.534;2024-03-08T07:06:47;1.30;99.90
15967;DHT22;15175;48.154;11.534;2024-03-08T07:12:52;1.50;99.90
15967;DHT22;15175;48.154;11.534;2024-03-08T07:18:55;1.40;99.90
15967;DHT22;15175;48.154;11.534;2024-03-08T07:24:57;1.30;99.90
15967;DHT22;15175;48.154;11.534;2024-03-08T07:31:20;1.30;99.90
15967;DHT22;15175;48.154;11.534;2024-03-08T07:37:28;1.60;99.90
15967;DHT22;15175;48.154;11.534;2024-03-08T07:43:30;1.50;99.90
15967;DHT22;15175;48.154;11.534;2024-03-08T07:49:35;1.70;99.90
15967;DHT22;15175;48.154;11.534;2024-03-08T07:55:38;1.50;99.90
15967;DHT22;15175;48.154;11.534;2024-03-08T08:01:43;1.80;99.90
15967;DHT22;15175;48.154;11.534;2024-03-08T08:07:47;2.20;99.90
15967;DHT22;15175;48.154;11.534;2024-03-08T08:13:50;2.90;99.90
15967;DHT22;15175;48.154;11.534;2024-03-08T08:19:53;2.90;99.90
15967;DHT22;15175;48.154;11.534;2024-03-08T08:25:56;3.50;99.90
15967;DHT22;15175;48.154;11.534;2024-03-08T08:31:59;4.40;99.90
15967;DHT22;15175;48.154;11.534;2024-03-08T08:38:01;4.50;99.90
15967;DHT22;15175;48.154;11.534;2024-03-08T08:44:06;4.00;99.90
15967;DHT22;15175;48.154;11.534;2024-03-08T08:50:11;4.20;99.90
15967;DHT22;15175;48.154;11.534;2024-03-08T08:56:13;4.70;99.90
15967;DHT22;15175;48.154;11.534;2024-03-08T09:02:18;5.80;99.90
15967;DHT22;15175;48.154;11.534;2024-03-08T09:08:21;6.60;99.90
15967;DHT22;15175;48.154;11.534;2024-03-08T09:14:24;6.80;99.90
15967;DHT22;15175;48.154;11.534;2024-03-08T09:20:28;7.30;99.90
15967;DHT22;15175;48.154;11.534;2024-03-08T09:26:32;7.70;99.90
15967;DHT22;15175;48.154;11.534;2024-03-08T09:32:35;7.60;99.90
15967;DHT22;15175;48.154;11.534;2024-03-08T09:38:39;7.50;99.90
15967;DHT22;15175;48.154;11.534;2024-03-08T09:44:44;7.50;99.90
15967;DHT22;15175;48.154;11.534;2024-03-08T09:50:47;7.30;99.90
15967;DHT22;15175;48.154;11.534;2024-03-08T09:56:52;7.00;99.90
15967;DHT22;15175;48.154;11.534;2024-03-08T10:02:54;6.80;99.90
15967;DHT22;15175;48.154;11.534;2024-03-08T10:09:02;6.70;99.90
15967;DHT22;15175;48.154;11.534;2024-03-08T10:15:08;6.80;99.90
15967;DHT22;15175;48.154;11.534;2024-03-08T10:21:13;6.50;99.90
15967;DHT22;15175;48.154;11.534;2024-03-08T10:27:17;6.50;99.90
15967;DHT22;15175;48.154;11.534;2024-03-08T10:33:21;6.60;99.90
15967;DHT22;15175;48.154;11.534;2024-03-08T10:39:24;6.30;99.90
15967;DHT22;15175;48.154;11.534;2024-03-08T10:45:35;6.40;99.90
15967;DHT22;15175;48.154;11.534;2024-03-08T10:51:40;6.80;99.90
15967;DHT22;15175;48.154;11.534;2024-03-08T10:57:43;6.60;99.90
15967;DHT22;15175;48.154;11.534;2024-03-08T11:03:47;6.80;99.90
15967;DHT22;15175;48.154;11.534;2024-03-08T11:09:56;7.20;99.90
15967;DHT22;15175;48.154;11.534;2024-03-08T11:15:59;7.20;99.90
15967;DHT22;15175;48.154;11.534;2024-03-08T11:22:03;7.50;99.90
15967;DHT22;15175;48.154;11.534;2024-03-08T11:28:12;7.60;99.90
15967;DHT22;15175;48.154;11.534;2024-03-08T11:34:19;7.60;99.90
15967;DHT22;15175;48.154;11.534;2024-03-08T11:40:23;7.70;99.90
15967;DHT22;15175;48.154;11.534;2024-03-08T11:46:27;7.90;99.90
15967;DHT22;15175;48.154;11.534;2024-03-08T11:52:29;8.00;99.90
15967;DHT22;15175;48.154;11.534;2024-03-08T11:58:32;8.00;99.90
15967;DHT22;15175;48.154;11.534;2024-03-08T12:04:39;8.30;99.90
15967;DHT22;15175;48.154;11.534;2024-03-08T12:10:42;8.60;99.90
15967;DHT22;15175;48.154;11.534;2024-03-08T12:16:44;9.20;99.90
15967;DHT22;15175;48.154;11.534;2024-03-08T12:22:49;9.30;99.90
15967;DHT22;15175;48.154;11.534;2024-03-08T12:28:53;9.90;99.90
15967;DHT22;15175;48.154;11.534;2024-03-08T12:34:56;10.10;99.90
15967;DHT22;15175;48.154;11.534;2024-03-08T12:41:00;10.60;99.90
15967;DHT22;15175;48.154;11.534;2024-03-08T12:47:03;10.40;99.90
15967;DHT22;15175;48.154;11.534;2024-03-08T12:53:06;10.10;99.90
15967;DHT22;15175;48.154;11.534;2024-03-08T12:59:11;10.30;99.90
15967;DHT22;15175;48.154;11.534;2024-03-08T13:05:14;10.70;99.90
15967;DHT22;15175;48.154;11.534;2024-03-08T13:11:17;10.90;99.90
15967;DHT22;15175;48.154;11.534;2024-03-08T13:17:21;10.80;99.90
15967;DHT22;15175;48.154;11.534;2024-03-08T13:23:24;10.80;99.90
15967;DHT22;15175;48.154;11.534;2024-03-08T13:29:26;10.70;99.90
15967;DHT22;15175;48.154;11.534;2024-03-08T13:35:30;10.70;99.90
15967;DHT22;15175;48.154;11.534;2024-03-08T13:41:33;10.60;99.90
15967;DHT22;15175;48.154;11.534;2024-03-08T13:47:35;10.90;99.90
15967;DHT22;15175;48.154;11.534;2024-03-08T13:53:39;11.10;99.90
15967;DHT22;15175;48.154;11.534;2024-03-08T13:59:42;10.90;99.90
15967;DHT22;15175;48.154;11.534;2024-03-08T14:05:45;11.00;99.90
15967;DHT22;15175;48.154;11.534;2024-03-08T14:11:49;11.00;99.90
15967;DHT22;15175;48.154;11.534;2024-03-08T14:17:55;10.80;99.90
15967;DHT22;15175;48.154;11.534;2024-03-08T14:23:58;10.50;99.90
15967;DHT22;15175;48.154;11.534;2024-03-08T14:30:02;10.30;99.90
15967;DHT22;15175;48.154;11.534;2024-03-08T14:36:05;10.20;99.90
15967;DHT22;15175;48.154;11.534;2024-03-08T14:42:08;10.10;99.90
15967;DHT22;15175;48.154;11.534;2024-03-08T14:48:15;10.10;99.90
15967;DHT22;15175;48.154;11.534;2024-03-08T14:54:18;9.80;99.90
15967;DHT22;15175;48.154;11.534;2024-03-08T15:00:23;9.80;99.90
15967;DHT22;15175;48.154;11.534;2024-03-08T15:06:36;9.40;99.90
15967;DHT22;15175;48.154;11.534;2024-03-08T15:12:38;9.40;99.90
15967;DHT22;15175;48.154;11.534;2024-03-08T15:18:41;9.50;99.90
15967;DHT22;15175;48.154;11.534;2024-03-08T15:24:48;9.50;99.90
15967;DHT22;15175;48.154;11.534;2024-03-08T15:30:52;9.40;99.90
15967;DHT22;15175;48.154;11.534;2024-03-08T15:36:56;9.40;99.90
15967;DHT22;15175;48.154;11.534;2024-03-08T15:43:04;9.50;99.90
15967;DHT22;15175;48.154;11.534;2024-03-08T15:49:06;9.40;99.90
15967;DHT22;15175;48.154;11.534;2024-03-08T15:55:11;9.30;99.90
15967;DHT22;15175;48.154;11.534;2024-03-08T16:01:18;9.20;99.90
15967;DHT22;15175;48.154;11.534;2024-03-08T16:07:21;9.20;99.90
15967;DHT22;15175;48.154;11.534;2024-03-08T16:13:25;9.10;99.90
15967;DHT22;15175;48.154;11.534;2024-03-08T16:19:28;9.10;99.90
15967;DHT22;15175;48.154;11.534;2024-03-08T16:25:32;9.00;99.90
15967;DHT22;15175;48.154;11.534;2024-03-08T16:31:34;8.90;99.90
15967;DHT22;15175;48.154;11.534;2024-03-08T16:37:39;8.80;99.90
15967;DHT22;15175;48.154;11.534;2024-03-08T16:43:42;8.80;99.90
15967;DHT22;15175;48.154;11.534;2024-03-08T16:49:45;8.70;99.90
15967;DHT22;15175;48.154;11.534;2024-03-08T16:55:49;8.60;99.90
15967;DHT22;15175;48.154;11.534;2024-03-08T17:01:53;8.60;99.90
15967;DHT22;15175;48.154;11.534;2024-03-08T17:07:56;8.50;99.90
15967;DHT22;15175;48.154;11.534;2024-03-08T17:14:02;8.50;99.90
15967;DHT22;15175;48.154;11.534;2024-03-08T17:20:07;8.40;99.90
15967;DHT22;15175;48.154;11.534;2024-03-08T17:26:14;8.30;99.90
15967;DHT22;15175;48.154;11.534;2024-03-08T17:32:20;8.30;99.90
15967;DHT22;15175;48.154;11.534;2024-03-08T17:38:22;8.20;99.90
15967;DHT22;15175;48.154;11.534;2024-03-08T17:44:25;8.10;99.90
15967;DHT22;15175;48.154;11.534;2024-03-08T17:50:29;8.10;99.90
15967;DHT22;15175;48.154;11.534;2024-03-08T17:56:31;8.00;99.90
15967;DHT22;15175;48.154;11.534;2024-03-08T18:02:34;7.80;99.90
15967;DHT22;15175;48.154;11.534;2024-03-08T18:08:38;7.70;99.90
15967;DHT22;15175;48.154;11.534;2024-03-08T18:14:43;7.60;99.90
15967;DHT22;15175;48.154;11.534;2024-03-08T18:20:46;7.50;99.90
15967;DHT22;15175;48.154;11.534;2024-03-08T18:26:50;7.40;99.90
15967;DHT22;15175;48.154;11.534;2024-03-08T18:32:54;7.30;99.90
15967;DHT22;15175;48.154;11.534;2024-03-08T18:38:56;7.20;99.90
15967;DHT22;15175;48.154;11.534;2024-03-08T18:45:00;7.10;99.90
15967;DHT22;15175;48.154;11.534;2024-03-08T18:51:20;7.00;99.90
15967;DHT22;15175;48.154;11.534;2024-03-08T18:57:22;6.80;99.90
15967;DHT22;15175;48.154;11.534;2024-03-08T19:03:29;6.80;99.90
15967;DHT22;15175;48.154;11.534;2024-03-08T19:09:31;6.70;99.90
15967;DHT22;15175;48.154;11.534;2024-03-08T19:15:34;6.60;99.90
15967;DHT22;15175;48.154;11.534;2024-03-08T19:21:38;6.50;99.90
15967;DHT22;15175;48.154;11.534;2024-03-08T19:27:41;6.50;99.90
15967;DHT22;15175;48.154;11.534;2024-03-08T19:33:43;6.40;99.90
15967;DHT22;15175;48.154;11.534;2024-03-08T19:39:47;6.30;99.90
15967;DHT22;15175;48.154;11.534;2024-03-08T19:45:50;6.20;99.90
15967;DHT22;15175;48.154;11.534;2024-03-08T19:51:53;6.10;99.90
15967;DHT22;15175;48.154;11.534;2024-03-08T19:57:57;6.10;99.90
15967;DHT22;15175;48.154;11.534;2024-03-08T20:04:00;6.00;99.90
15967;DHT22;15175;48.154;11.534;2024-03-08T20:10:03;5.90;99.90
15967;DHT22;15175;48.154;11.534;2024-03-08T20:16:09;5.80;99.90
15967;DHT22;15175;48.154;11.534;2024-03-08T20:22:13;5.80;99.90
15967;DHT22;15175;48.154;11.534;2024-03-08T20:28:17;5.80;99.90
15967;DHT22;15175;48.154;11.534;2024-03-08T20:34:21;5.70;99.90
15967;DHT22;15175;48.154;11.534;2024-03-08T20:40:25;5.70;99.90
15967;DHT22;15175;48.154;11.534;2024-03-08T20:46:33;5.60;99.90
15967;DHT22;15175;48.154;11.534;2024-03-08T20:52:37;5.60;99.90
15967;DHT22;15175;48.154;11.534;2024-03-08T20:58:40;5.50;99.90
15967;DHT22;15175;48.154;11.534;2024-03-08T21:04:50;5.40;99.90
15967;DHT22;15175;48.154;11.534;2024-03-08T21:10:55;5.40;99.90
15967;DHT22;15175;48.154;11.534;2024-03-08T21:16:57;5.30;99.90
15967;DHT22;15175;48.154;11.534;2024-03-08T21:22:59;5.30;99.90
15967;DHT22;15175;48.154;11.534;2024-03-08T21:29:06;5.20;99.90
15967;DHT22;15175;48.154;11.534;2024-03-08T21:35:09;5.20;99.90
15967;DHT22;15175;48.154;11.534;2024-03-08T21:41:12;5.20;99.90
15967;DHT22;15175;48.154;11.534;2024-03-08T21:47:16;5.10;99.90
15967;DHT22;15175;48.154;11.534;2024-03-08T21:53:19;5.00;99.90
15967;DHT22;15175;48.154;11.534;2024-03-08T21:59:22;5.00;99.90
15967;DHT22;15175;48.154;11.534;2024-03-08T22:05:26;4.90;99.90
15967;DHT22;15175;48.154;11.534;2024-03-08T22:11:28;4.80;99.90
15967;DHT22;15175;48.154;11.534;2024-03-08T22:17:31;4.60;99.90
15967;DHT22;15175;48.154;11.534;2024-03-08T22:23:35;4.70;99.90
15967;DHT22;15175;48.154;11.534;2024-03-08T22:29:40;4.60;99.90
15967;DHT22;15175;48.154;11.534;2024-03-08T22:35:43;4.60;99.90
15967;DHT22;15175;48.154;11.534;2024-03-08T22:41:47;4.50;99.90
15967;DHT22;15175;48.154;11.534;2024-03-08T22:47:49;4.50;99.90
15967;DHT22;15175;48.154;11.534;2024-03-08T22:53:51;4.50;99.90
15967;DHT22;15175;48.154;11.534;2024-03-08T22:59:56;4.50;99.90
15967;DHT22;15175;48.154;11.534;2024-03-08T23:05:58;4.50;99.90
15967;DHT22;15175;48.154;11.534;2024-03-08T23:12:00;4.50;99.90
15967;DHT22;15175;48.154;11.534;2024-03-08T23:18:05;4.50;99.90
15967;DHT22;15175;48.154;11.534;2024-03-08T23:24:11;4.50;99.90
15967;DHT22;15175;48.154;11.534;2024-03-08T23:30:14;4.40;99.90
15967;DHT22;15175;48.154;11.534;2024-03-08T23:36:18;4.30;99.90
15967;DHT22;15175;48.154;11.534;2024-03-08T23:42:20;4.30;99.90
15967;DHT22;15175;48.154;11.534;2024-03-08T23:48:22;4.20;99.90
15967;DHT22;15175;48.154;11.534;2024-03-08T23:54:28;4.30;99.90
